sensor_id;sensor_type;location;lat;lon;timestamp;P1;durP1;ratioP1;P2;durP2;ratioP2
36457;SDS011;22480;50.546;12.292;2024-03-22T00:01:01;11.93;;;8.20;;
36457;SDS011;22480;50.546;12.292;2024-03-22T00:03:26;15.52;;;9.07;;
36457;SDS011;22480;50.546;12.292;2024-03-22T00:05:52;14.60;;;9.65;;
36457;SDS011;22480;50.546;12.292;2024-03-22T00:08:18;15.90;;;8.93;;
36457;SDS011;22480;50.546;12.292;2024-03-22T00:10:43;13.73;;;8.32;;
36457;SDS011;22480;50.546;12.292;2024-03-22T00:13:09;15.65;;;9.32;;
36457;SDS011;22480;50.546;12.292;2024-03-22T00:15:35;17.33;;;9.70;;
36457;SDS011;22480;50.546;12.292;2024-03-22T00:18:00;18.63;;;10.02;;
36457;SDS011;22480;50.546;12.292;2024-03-22T00:20:26;17.63;;;10.07;;
36457;SDS011;22480;50.546;12.292;2024-03-22T00:22:52;22.73;;;9.98;;
36457;SDS011;22480;50.546;12.292;2024-03-22T00:25:17;20.25;;;10.27;;
36457;SDS011;22480;50.546;12.292;2024-03-22T00:27:43;20.23;;;10.90;;
36457;SDS011;22480;50.546;12.292;2024-03-22T00:30:09;20.65;;;10.70;;
36457;SDS011;22480;50.546;12.292;2024-03-22T00:32:35;25.48;;;11.68;;
36457;SDS011;22480;50.546;12.292;2024-03-22T00:35:00;27.52;;;11.77;;
36457;SDS011;22480;50.546;12.292;2024-03-22T00:37:26;22.05;;;12.38;;
36457;SDS011;22480;50.546;12.292;2024-03-22T00:39:53;23.85;;;12.90;;
36457;SDS011;22480;50.546;12.292;2024-03-22T00:42:18;25.08;;;12.35;;
36457;SDS011;22480;50.546;12.292;2024-03-22T00:44:44;25.30;;;11.45;;
36457;SDS011;22480;50.546;12.292;2024-03-22T00:47:10;24.58;;;12.43;;
36457;SDS011;22480;50.546;12.292;2024-03-22T00:49:35;24.50;;;12.05;;
36457;SDS011;22480;50.546;12.292;2024-03-22T00:52:01;26.85;;;12.30;;
36457;SDS011;22480;50.546;12.292;2024-03-22T00:54:27;21.95;;;12.30;;
36457;SDS011;22480;50.546;12.292;2024-03-22T00:56:53;27.17;;;12.60;;
36457;SDS011;22480;50.546;12.292;2024-03-22T00:59:19;27.15;;;13.32;;
36457;SDS011;22480;50.546;12.292;2024-03-22T01:01:44;25.75;;;12.60;;
36457;SDS011;22480;50.546;12.292;2024-03-22T01:04:10;28.63;;;13.60;;
36457;SDS011;22480;50.546;12.292;2024-03-22T01:06:36;27.48;;;13.88;;
36457;SDS011;22480;50.546;12.292;2024-03-22T01:09:01;31.55;;;14.55;;
36457;SDS011;22480;50.546;12.292;2024-03-22T01:11:29;28.58;;;14.48;;
36457;SDS011;22480;50.546;12.292;2024-03-22T01:13:54;32.90;;;14.18;;
36457;SDS011;22480;50.546;12.292;2024-03-22T01:16:20;32.78;;;15.10;;
36457;SDS011;22480;50.546;12.292;2024-03-22T01:18:46;33.80;;;15.05;;
36457;SDS011;22480;50.546;12.292;2024-03-22T01:21:11;33.75;;;15.20;;
36457;SDS011;22480;50.546;12.292;2024-03-22T01:23:37;31.52;;;14.55;;
36457;SDS011;22480;50.546;12.292;2024-03-22T01:26:03;36.50;;;15.80;;
36457;SDS011;22480;50.546;12.292;2024-03-22T01:28:28;36.28;;;14.85;;
36457;SDS011;22480;50.546;12.292;2024-03-22T01:30:54;32.83;;;15.13;;
36457;SDS011;22480;50.546;12.292;2024-03-22T01:33:20;38.63;;;15.65;;
36457;SDS011;22480;50.546;12.292;2024-03-22T01:35:45;34.50;;;15.30;;
36457;SDS011;22480;50.546;12.292;2024-03-22T01:38:11;40.03;;;15.53;;
36457;SDS011;22480;50.546;12.292;2024-03-22T01:40:37;39.20;;;15.25;;
36457;SDS011;22480;50.546;12.292;2024-03-22T01:43:02;35.53;;;14.98;;
36457;SDS011;22480;50.546;12.292;2024-03-22T01:45:31;43.30;;;16.67;;
36457;SDS011;22480;50.546;12.292;2024-03-22T01:47:58;39.22;;;15.18;;
36457;SDS011;22480;50.546;12.292;2024-03-22T01:50:24;36.50;;;15.13;;
36457;SDS011;22480;50.546;12.292;2024-03-22T01:52:51;38.63;;;14.98;;
36457;SDS011;22480;50.546;12.292;2024-03-22T01:55:17;32.17;;;13.63;;
36457;SDS011;22480;50.546;12.292;2024-03-22T01:57:46;33.17;;;14.82;;
36457;SDS011;22480;50.546;12.292;2024-03-22T02:00:14;32.93;;;14.20;;
36457;SDS011;22480;50.546;12.292;2024-03-22T02:02:40;33.63;;;15.02;;
36457;SDS011;22480;50.546;12.292;2024-03-22T02:05:16;36.50;;;15.23;;
36457;SDS011;22480;50.546;12.292;2024-03-22T02:07:46;39.17;;;17.30;;
36457;SDS011;22480;50.546;12.292;2024-03-22T02:10:13;36.08;;;16.10;;
36457;SDS011;22480;50.546;12.292;2024-03-22T02:12:39;36.78;;;16.40;;
36457;SDS011;22480;50.546;12.292;2024-03-22T02:15:06;38.22;;;15.13;;
36457;SDS011;22480;50.546;12.292;2024-03-22T02:17:33;31.50;;;15.45;;
36457;SDS011;22480;50.546;12.292;2024-03-22T02:20:00;35.72;;;15.85;;
36457;SDS011;22480;50.546;12.292;2024-03-22T02:22:26;37.25;;;15.05;;
36457;SDS011;22480;50.546;12.292;2024-03-22T02:24:52;31.05;;;14.77;;
36457;SDS011;22480;50.546;12.292;2024-03-22T02:27:18;38.28;;;16.55;;
36457;SDS011;22480;50.546;12.292;2024-03-22T02:29:43;32.72;;;14.73;;
36457;SDS011;22480;50.546;12.292;2024-03-22T02:32:09;30.83;;;15.40;;
36457;SDS011;22480;50.546;12.292;2024-03-22T02:34:35;29.98;;;14.00;;
36457;SDS011;22480;50.546;12.292;2024-03-22T02:37:01;27.38;;;13.63;;
36457;SDS011;22480;50.546;12.292;2024-03-22T02:39:27;27.90;;;14.00;;
36457;SDS011;22480;50.546;12.292;2024-03-22T02:41:54;28.10;;;13.52;;
36457;SDS011;22480;50.546;12.292;2024-03-22T02:44:20;29.48;;;13.60;;
36457;SDS011;22480;50.546;12.292;2024-03-22T02:46:45;25.48;;;13.25;;
36457;SDS011;22480;50.546;12.292;2024-03-22T02:49:11;31.73;;;14.63;;
36457;SDS011;22480;50.546;12.292;2024-03-22T02:51:37;28.73;;;13.57;;
36457;SDS011;22480;50.546;12.292;2024-03-22T02:54:03;31.50;;;14.75;;
36457;SDS011;22480;50.546;12.292;2024-03-22T02:56:29;30.10;;;13.85;;
36457;SDS011;22480;50.546;12.292;2024-03-22T02:58:55;26.45;;;13.73;;
36457;SDS011;22480;50.546;12.292;2024-03-22T03:01:21;23.92;;;14.07;;
36457;SDS011;22480;50.546;12.292;2024-03-22T03:03:46;27.05;;;13.27;;
36457;SDS011;22480;50.546;12.292;2024-03-22T03:06:12;23.80;;;13.43;;
36457;SDS011;22480;50.546;12.292;2024-03-22T03:08:39;26.88;;;13.88;;
36457;SDS011;22480;50.546;12.292;2024-03-22T03:11:04;27.70;;;12.88;;
36457;SDS011;22480;50.546;12.292;2024-03-22T03:13:30;24.85;;;13.00;;
36457;SDS011;22480;50.546;12.292;2024-03-22T03:15:56;25.27;;;12.45;;
36457;SDS011;22480;50.546;12.292;2024-03-22T03:18:22;30.45;;;13.63;;
36457;SDS011;22480;50.546;12.292;2024-03-22T03:20:48;27.23;;;13.98;;
36457;SDS011;22480;50.546;12.292;2024-03-22T03:23:14;21.58;;;11.93;;
36457;SDS011;22480;50.546;12.292;2024-03-22T03:25:40;30.10;;;14.45;;
36457;SDS011;22480;50.546;12.292;2024-03-22T03:28:05;26.17;;;13.45;;
36457;SDS011;22480;50.546;12.292;2024-03-22T03:30:33;25.58;;;13.02;;
36457;SDS011;22480;50.546;12.292;2024-03-22T03:33:00;24.50;;;12.68;;
36457;SDS011;22480;50.546;12.292;2024-03-22T03:35:25;23.63;;;12.60;;
36457;SDS011;22480;50.546;12.292;2024-03-22T03:37:52;26.17;;;13.30;;
36457;SDS011;22480;50.546;12.292;2024-03-22T03:40:18;23.92;;;12.80;;
36457;SDS011;22480;50.546;12.292;2024-03-22T03:42:43;24.52;;;12.52;;
36457;SDS011;22480;50.546;12.292;2024-03-22T03:45:09;22.70;;;13.60;;
36457;SDS011;22480;50.546;12.292;2024-03-22T03:47:35;24.35;;;11.95;;
36457;SDS011;22480;50.546;12.292;2024-03-22T03:50:00;22.33;;;12.80;;
36457;SDS011;22480;50.546;12.292;2024-03-22T03:52:27;21.63;;;12.57;;
36457;SDS011;22480;50.546;12.292;2024-03-22T03:54:53;22.70;;;11.85;;
36457;SDS011;22480;50.546;12.292;2024-03-22T03:57:18;21.90;;;11.48;;
36457;SDS011;22480;50.546;12.292;2024-03-22T03:59:44;21.08;;;13.45;;
36457;SDS011;22480;50.546;12.292;2024-03-22T04:02:10;21.15;;;12.40;;
36457;SDS011;22480;50.546;12.292;2024-03-22T04:04:35;19.73;;;11.30;;
36457;SDS011;22480;50.546;12.292;2024-03-22T04:07:01;21.13;;;11.40;;
36457;SDS011;22480;50.546;12.292;2024-03-22T04:09:27;18.63;;;11.85;;
36457;SDS011;22480;50.546;12.292;2024-03-22T04:11:53;24.02;;;12.07;;
36457;SDS011;22480;50.546;12.292;2024-03-22T04:14:19;20.67;;;12.60;;
36457;SDS011;22480;50.546;12.292;2024-03-22T04:16:44;22.52;;;12.52;;
36457;SDS011;22480;50.546;12.292;2024-03-22T04:19:10;18.27;;;11.23;;
36457;SDS011;22480;50.546;12.292;2024-03-22T04:21:36;17.75;;;10.38;;
36457;SDS011;22480;50.546;12.292;2024-03-22T04:24:02;18.65;;;10.73;;
36457;SDS011;22480;50.546;12.292;2024-03-22T04:26:27;18.27;;;11.65;;
36457;SDS011;22480;50.546;12.292;2024-03-22T04:28:53;20.40;;;11.95;;
36457;SDS011;22480;50.546;12.292;2024-03-22T04:31:19;18.20;;;11.95;;
36457;SDS011;22480;50.546;12.292;2024-03-22T04:33:44;16.60;;;10.90;;
36457;SDS011;22480;50.546;12.292;2024-03-22T04:36:10;19.48;;;10.75;;
36457;SDS011;22480;50.546;12.292;2024-03-22T04:38:36;21.13;;;11.43;;
36457;SDS011;22480;50.546;12.292;2024-03-22T04:41:01;18.83;;;11.32;;
36457;SDS011;22480;50.546;12.292;2024-03-22T04:43:27;20.20;;;11.60;;
36457;SDS011;22480;50.546;12.292;2024-03-22T04:45:53;15.98;;;10.88;;
36457;SDS011;22480;50.546;12.292;2024-03-22T04:48:19;18.73;;;10.57;;
36457;SDS011;22480;50.546;12.292;2024-03-22T04:50:46;17.58;;;11.18;;
36457;SDS011;22480;50.546;12.292;2024-03-22T04:53:16;16.83;;;10.27;;
36457;SDS011;22480;50.546;12.292;2024-03-22T04:55:43;20.77;;;10.98;;
36457;SDS011;22480;50.546;12.292;2024-03-22T04:58:17;15.73;;;10.57;;
36457;SDS011;22480;50.546;12.292;2024-03-22T05:00:43;19.38;;;11.35;;
36457;SDS011;22480;50.546;12.292;2024-03-22T05:03:10;15.82;;;9.98;;
36457;SDS011;22480;50.546;12.292;2024-03-22T05:05:36;18.85;;;10.52;;
36457;SDS011;22480;50.546;12.292;2024-03-22T05:08:02;19.83;;;10.27;;
36457;SDS011;22480;50.546;12.292;2024-03-22T05:10:29;15.55;;;10.30;;
36457;SDS011;22480;50.546;12.292;2024-03-22T05:12:55;15.20;;;9.77;;
36457;SDS011;22480;50.546;12.292;2024-03-22T05:15:21;15.80;;;9.85;;
36457;SDS011;22480;50.546;12.292;2024-03-22T05:17:48;15.68;;;10.82;;
36457;SDS011;22480;50.546;12.292;2024-03-22T05:20:14;15.30;;;10.15;;
36457;SDS011;22480;50.546;12.292;2024-03-22T05:22:41;14.05;;;9.57;;
36457;SDS011;22480;50.546;12.292;2024-03-22T05:25:07;16.25;;;9.55;;
36457;SDS011;22480;50.546;12.292;2024-03-22T05:27:34;13.48;;;9.50;;
36457;SDS011;22480;50.546;12.292;2024-03-22T05:30:00;12.35;;;9.27;;
36457;SDS011;22480;50.546;12.292;2024-03-22T05:32:26;14.85;;;9.23;;
36457;SDS011;22480;50.546;12.292;2024-03-22T05:34:52;13.50;;;9.13;;
36457;SDS011;22480;50.546;12.292;2024-03-22T05:37:18;14.23;;;9.05;;
36457;SDS011;22480;50.546;12.292;2024-03-22T05:39:44;16.75;;;9.07;;
36457;SDS011;22480;50.546;12.292;2024-03-22T05:42:09;11.65;;;8.43;;
36457;SDS011;22480;50.546;12.292;2024-03-22T05:44:35;19.95;;;10.57;;
36457;SDS011;22480;50.546;12.292;2024-03-22T05:47:01;19.02;;;10.75;;
36457;SDS011;22480;50.546;12.292;2024-03-22T05:49:27;18.25;;;10.40;;
36457;SDS011;22480;50.546;12.292;2024-03-22T05:51:52;16.52;;;9.48;;
36457;SDS011;22480;50.546;12.292;2024-03-22T05:54:18;14.55;;;8.95;;
36457;SDS011;22480;50.546;12.292;2024-03-22T05:56:45;12.52;;;8.05;;
36457;SDS011;22480;50.546;12.292;2024-03-22T05:59:11;10.48;;;7.47;;
36457;SDS011;22480;50.546;12.292;2024-03-22T06:01:36;12.63;;;7.32;;
36457;SDS011;22480;50.546;12.292;2024-03-22T06:04:04;12.77;;;8.25;;
36457;SDS011;22480;50.546;12.292;2024-03-22T06:06:31;12.00;;;8.52;;
36457;SDS011;22480;50.546;12.292;2024-03-22T06:08:58;12.93;;;7.18;;
36457;SDS011;22480;50.546;12.292;2024-03-22T06:11:25;11.07;;;7.70;;
36457;SDS011;22480;50.546;12.292;2024-03-22T06:13:51;11.88;;;8.43;;
36457;SDS011;22480;50.546;12.292;2024-03-22T06:16:16;10.40;;;7.25;;
36457;SDS011;22480;50.546;12.292;2024-03-22T06:18:42;10.80;;;7.22;;
36457;SDS011;22480;50.546;12.292;2024-03-22T06:21:08;13.63;;;8.15;;
36457;SDS011;22480;50.546;12.292;2024-03-22T06:23:34;12.02;;;8.30;;
36457;SDS011;22480;50.546;12.292;2024-03-22T06:26:00;11.95;;;9.15;;
36457;SDS011;22480;50.546;12.292;2024-03-22T06:28:27;13.05;;;7.78;;
36457;SDS011;22480;50.546;12.292;2024-03-22T06:30:53;10.98;;;7.65;;
36457;SDS011;22480;50.546;12.292;2024-03-22T06:33:19;13.07;;;8.45;;
36457;SDS011;22480;50.546;12.292;2024-03-22T06:35:45;11.65;;;8.10;;
36457;SDS011;22480;50.546;12.292;2024-03-22T06:38:12;14.07;;;9.15;;
36457;SDS011;22480;50.546;12.292;2024-03-22T06:40:38;14.10;;;9.18;;
36457;SDS011;22480;50.546;12.292;2024-03-22T06:43:03;14.88;;;10.30;;
36457;SDS011;22480;50.546;12.292;2024-03-22T06:45:29;14.23;;;9.88;;
36457;SDS011;22480;50.546;12.292;2024-03-22T06:47:55;13.43;;;9.15;;
36457;SDS011;22480;50.546;12.292;2024-03-22T06:50:21;15.57;;;10.38;;
36457;SDS011;22480;50.546;12.292;2024-03-22T06:52:50;17.67;;;9.30;;
36457;SDS011;22480;50.546;12.292;2024-03-22T06:55:18;16.58;;;10.07;;
36457;SDS011;22480;50.546;12.292;2024-03-22T06:57:45;16.15;;;9.80;;
36457;SDS011;22480;50.546;12.292;2024-03-22T07:00:12;17.75;;;10.07;;
36457;SDS011;22480;50.546;12.292;2024-03-22T07:02:38;17.23;;;11.75;;
36457;SDS011;22480;50.546;12.292;2024-03-22T07:05:05;17.00;;;11.20;;
36457;SDS011;22480;50.546;12.292;2024-03-22T07:07:32;19.25;;;10.93;;
36457;SDS011;22480;50.546;12.292;2024-03-22T07:09:58;16.95;;;11.15;;
36457;SDS011;22480;50.546;12.292;2024-03-22T07:12:23;15.90;;;10.68;;
36457;SDS011;22480;50.546;12.292;2024-03-22T07:14:49;16.10;;;10.70;;
36457;SDS011;22480;50.546;12.292;2024-03-22T07:17:15;16.40;;;10.05;;
36457;SDS011;22480;50.546;12.292;2024-03-22T07:19:41;17.20;;;10.82;;
36457;SDS011;22480;50.546;12.292;2024-03-22T07:22:07;17.33;;;10.48;;
36457;SDS011;22480;50.546;12.292;2024-03-22T07:24:33;16.45;;;11.48;;
36457;SDS011;22480;50.546;12.292;2024-03-22T07:26:59;17.98;;;11.55;;
36457;SDS011;22480;50.546;12.292;2024-03-22T07:29:25;16.85;;;11.73;;
36457;SDS011;22480;50.546;12.292;2024-03-22T07:31:50;21.30;;;13.18;;
36457;SDS011;22480;50.546;12.292;2024-03-22T07:34:16;22.50;;;13.20;;
36457;SDS011;22480;50.546;12.292;2024-03-22T07:36:42;19.88;;;12.82;;
36457;SDS011;22480;50.546;12.292;2024-03-22T07:39:07;18.65;;;12.85;;
36457;SDS011;22480;50.546;12.292;2024-03-22T07:41:33;22.50;;;13.68;;
36457;SDS011;22480;50.546;12.292;2024-03-22T07:44:00;20.90;;;14.23;;
36457;SDS011;22480;50.546;12.292;2024-03-22T07:46:26;23.73;;;14.18;;
36457;SDS011;22480;50.546;12.292;2024-03-22T07:48:52;23.98;;;15.05;;
36457;SDS011;22480;50.546;12.292;2024-03-22T07:51:18;20.77;;;13.50;;
36457;SDS011;22480;50.546;12.292;2024-03-22T07:53:44;25.70;;;15.25;;
36457;SDS011;22480;50.546;12.292;2024-03-22T07:56:10;22.58;;;14.80;;
36457;SDS011;22480;50.546;12.292;2024-03-22T07:58:36;24.98;;;14.90;;
36457;SDS011;22480;50.546;12.292;2024-03-22T08:01:03;21.67;;;14.88;;
36457;SDS011;22480;50.546;12.292;2024-03-22T08:03:29;27.60;;;15.20;;
36457;SDS011;22480;50.546;12.292;2024-03-22T08:05:54;26.30;;;15.30;;
36457;SDS011;22480;50.546;12.292;2024-03-22T08:08:20;24.73;;;15.43;;
36457;SDS011;22480;50.546;12.292;2024-03-22T08:10:46;22.10;;;14.75;;
36457;SDS011;22480;50.546;12.292;2024-03-22T08:13:11;25.38;;;15.60;;
36457;SDS011;22480;50.546;12.292;2024-03-22T08:15:37;27.60;;;15.90;;
36457;SDS011;22480;50.546;12.292;2024-03-22T08:18:03;24.50;;;15.02;;
36457;SDS011;22480;50.546;12.292;2024-03-22T08:20:29;24.55;;;15.98;;
36457;SDS011;22480;50.546;12.292;2024-03-22T08:22:55;25.98;;;14.77;;
36457;SDS011;22480;50.546;12.292;2024-03-22T08:25:20;28.52;;;17.65;;
36457;SDS011;22480;50.546;12.292;2024-03-22T08:27:48;25.23;;;16.17;;
36457;SDS011;22480;50.546;12.292;2024-03-22T08:30:13;26.65;;;15.82;;
36457;SDS011;22480;50.546;12.292;2024-03-22T08:32:40;27.98;;;16.30;;
36457;SDS011;22480;50.546;12.292;2024-03-22T08:35:05;29.65;;;16.55;;
36457;SDS011;22480;50.546;12.292;2024-03-22T08:37:32;26.75;;;15.75;;
36457;SDS011;22480;50.546;12.292;2024-03-22T08:39:58;27.77;;;16.83;;
36457;SDS011;22480;50.546;12.292;2024-03-22T08:42:24;28.92;;;16.38;;
36457;SDS011;22480;50.546;12.292;2024-03-22T08:44:50;26.33;;;16.40;;
36457;SDS011;22480;50.546;12.292;2024-03-22T08:47:16;25.27;;;15.88;;
36457;SDS011;22480;50.546;12.292;2024-03-22T08:49:41;25.95;;;16.40;;
36457;SDS011;22480;50.546;12.292;2024-03-22T08:52:09;26.27;;;16.85;;
36457;SDS011;22480;50.546;12.292;2024-03-22T08:54:35;25.50;;;16.80;;
36457;SDS011;22480;50.546;12.292;2024-03-22T08:57:01;24.00;;;15.63;;
36457;SDS011;22480;50.546;12.292;2024-03-22T08:59:26;24.25;;;15.48;;
36457;SDS011;22480;50.546;12.292;2024-03-22T09:01:53;25.30;;;15.63;;
36457;SDS011;22480;50.546;12.292;2024-03-22T09:04:18;25.17;;;15.10;;
36457;SDS011;22480;50.546;12.292;2024-03-22T09:06:45;24.63;;;15.60;;
36457;SDS011;22480;50.546;12.292;2024-03-22T09:09:11;23.15;;;14.98;;
36457;SDS011;22480;50.546;12.292;2024-03-22T09:11:37;24.45;;;15.60;;
36457;SDS011;22480;50.546;12.292;2024-03-22T09:14:03;25.70;;;16.25;;
36457;SDS011;22480;50.546;12.292;2024-03-22T09:16:29;24.75;;;15.55;;
36457;SDS011;22480;50.546;12.292;2024-03-22T09:18:55;26.77;;;14.75;;
36457;SDS011;22480;50.546;12.292;2024-03-22T09:21:21;21.30;;;13.93;;
36457;SDS011;22480;50.546;12.292;2024-03-22T09:23:47;21.08;;;13.65;;
36457;SDS011;22480;50.546;12.292;2024-03-22T09:26:12;22.90;;;14.95;;
36457;SDS011;22480;50.546;12.292;2024-03-22T09:28:39;19.23;;;12.88;;
36457;SDS011;22480;50.546;12.292;2024-03-22T09:31:05;21.83;;;14.77;;
36457;SDS011;22480;50.546;12.292;2024-03-22T09:33:34;22.33;;;13.85;;
36457;SDS011;22480;50.546;12.292;2024-03-22T09:36:01;20.83;;;13.25;;
36457;SDS011;22480;50.546;12.292;2024-03-22T09:38:27;23.33;;;14.52;;
36457;SDS011;22480;50.546;12.292;2024-03-22T09:40:53;22.25;;;14.48;;
36457;SDS011;22480;50.546;12.292;2024-03-22T09:43:20;24.85;;;15.15;;
36457;SDS011;22480;50.546;12.292;2024-03-22T09:45:47;22.30;;;14.20;;
36457;SDS011;22480;50.546;12.292;2024-03-22T09:48:14;22.17;;;14.23;;
36457;SDS011;22480;50.546;12.292;2024-03-22T09:50:44;22.52;;;13.65;;
36457;SDS011;22480;50.546;12.292;2024-03-22T09:53:13;25.17;;;16.23;;
36457;SDS011;22480;50.546;12.292;2024-03-22T09:55:40;25.33;;;14.80;;
36457;SDS011;22480;50.546;12.292;2024-03-22T09:58:09;23.25;;;15.35;;
36457;SDS011;22480;50.546;12.292;2024-03-22T10:00:35;24.10;;;13.95;;
36457;SDS011;22480;50.546;12.292;2024-03-22T10:03:01;23.35;;;14.52;;
36457;SDS011;22480;50.546;12.292;2024-03-22T10:05:29;24.13;;;15.40;;
36457;SDS011;22480;50.546;12.292;2024-03-22T10:07:54;25.45;;;15.27;;
36457;SDS011;22480;50.546;12.292;2024-03-22T10:10:20;22.50;;;15.02;;
36457;SDS011;22480;50.546;12.292;2024-03-22T10:12:47;25.00;;;15.73;;
36457;SDS011;22480;50.546;12.292;2024-03-22T10:15:13;24.27;;;14.85;;
36457;SDS011;22480;50.546;12.292;2024-03-22T10:17:39;25.98;;;14.98;;
36457;SDS011;22480;50.546;12.292;2024-03-22T10:20:05;25.27;;;14.75;;
36457;SDS011;22480;50.546;12.292;2024-03-22T10:22:42;27.42;;;16.25;;
36457;SDS011;22480;50.546;12.292;2024-03-22T10:25:09;20.55;;;14.27;;
36457;SDS011;22480;50.546;12.292;2024-03-22T10:27:37;25.20;;;14.63;;
36457;SDS011;22480;50.546;12.292;2024-03-22T10:30:05;20.13;;;12.20;;
36457;SDS011;22480;50.546;12.292;2024-03-22T10:32:35;20.23;;;13.35;;
36457;SDS011;22480;50.546;12.292;2024-03-22T10:35:03;19.55;;;13.43;;
36457;SDS011;22480;50.546;12.292;2024-03-22T10:37:31;19.80;;;13.73;;
36457;SDS011;22480;50.546;12.292;2024-03-22T10:40:02;18.58;;;11.98;;
36457;SDS011;22480;50.546;12.292;2024-03-22T10:42:33;18.00;;;12.23;;
36457;SDS011;22480;50.546;12.292;2024-03-22T10:45:00;19.20;;;12.80;;
36457;SDS011;22480;50.546;12.292;2024-03-22T10:47:29;21.02;;;12.38;;
36457;SDS011;22480;50.546;12.292;2024-03-22T10:50:14;19.70;;;12.93;;
36457;SDS011;22480;50.546;12.292;2024-03-22T10:52:48;18.95;;;12.07;;
36457;SDS011;22480;50.546;12.292;2024-03-22T10:55:23;22.10;;;13.63;;
36457;SDS011;22480;50.546;12.292;2024-03-22T10:57:56;20.42;;;14.05;;
36457;SDS011;22480;50.546;12.292;2024-03-22T11:00:29;20.50;;;13.30;;
36457;SDS011;22480;50.546;12.292;2024-03-22T11:02:56;23.60;;;14.10;;
36457;SDS011;22480;50.546;12.292;2024-03-22T11:05:22;19.13;;;13.02;;
36457;SDS011;22480;50.546;12.292;2024-03-22T11:08:09;19.67;;;13.10;;
36457;SDS011;22480;50.546;12.292;2024-03-22T11:10:35;18.77;;;12.75;;
36457;SDS011;22480;50.546;12.292;2024-03-22T11:13:02;21.00;;;12.63;;
36457;SDS011;22480;50.546;12.292;2024-03-22T11:17:58;21.17;;;14.32;;
36457;SDS011;22480;50.546;12.292;2024-03-22T11:20:25;17.60;;;12.60;;
36457;SDS011;22480;50.546;12.292;2024-03-22T11:22:51;18.75;;;12.52;;
36457;SDS011;22480;50.546;12.292;2024-03-22T11:25:17;20.42;;;13.00;;
36457;SDS011;22480;50.546;12.292;2024-03-22T11:27:44;18.60;;;13.43;;
36457;SDS011;22480;50.546;12.292;2024-03-22T11:30:13;21.63;;;13.18;;
36457;SDS011;22480;50.546;12.292;2024-03-22T11:32:40;19.10;;;12.45;;
36457;SDS011;22480;50.546;12.292;2024-03-22T11:35:13;20.48;;;12.73;;
36457;SDS011;22480;50.546;12.292;2024-03-22T11:37:39;20.15;;;13.75;;
36457;SDS011;22480;50.546;12.292;2024-03-22T11:40:06;20.88;;;13.30;;
36457;SDS011;22480;50.546;12.292;2024-03-22T11:42:36;18.52;;;12.48;;
36457;SDS011;22480;50.546;12.292;2024-03-22T11:47:33;21.17;;;13.15;;
36457;SDS011;22480;50.546;12.292;2024-03-22T11:49:59;20.40;;;13.25;;
36457;SDS011;22480;50.546;12.292;2024-03-22T11:52:25;17.38;;;12.27;;
36457;SDS011;22480;50.546;12.292;2024-03-22T11:54:51;17.02;;;12.90;;
36457;SDS011;22480;50.546;12.292;2024-03-22T11:57:18;18.13;;;13.18;;
36457;SDS011;22480;50.546;12.292;2024-03-22T11:59:45;16.60;;;12.48;;
36457;SDS011;22480;50.546;12.292;2024-03-22T12:02:11;19.10;;;12.57;;
36457;SDS011;22480;50.546;12.292;2024-03-22T12:04:41;18.88;;;13.02;;
36457;SDS011;22480;50.546;12.292;2024-03-22T12:07:11;18.23;;;13.13;;
36457;SDS011;22480;50.546;12.292;2024-03-22T12:09:43;20.02;;;12.38;;
36457;SDS011;22480;50.546;12.292;2024-03-22T12:12:09;17.92;;;12.35;;
36457;SDS011;22480;50.546;12.292;2024-03-22T12:14:36;17.65;;;12.25;;
36457;SDS011;22480;50.546;12.292;2024-03-22T12:17:02;18.95;;;12.30;;
36457;SDS011;22480;50.546;12.292;2024-03-22T12:19:28;19.65;;;13.13;;
36457;SDS011;22480;50.546;12.292;2024-03-22T12:21:54;16.40;;;11.95;;
36457;SDS011;22480;50.546;12.292;2024-03-22T12:24:20;18.27;;;11.90;;
36457;SDS011;22480;50.546;12.292;2024-03-22T12:26:47;16.50;;;12.30;;
36457;SDS011;22480;50.546;12.292;2024-03-22T12:29:14;17.52;;;11.77;;
36457;SDS011;22480;50.546;12.292;2024-03-22T12:31:41;16.35;;;12.32;;
36457;SDS011;22480;50.546;12.292;2024-03-22T12:34:07;19.10;;;12.85;;
36457;SDS011;22480;50.546;12.292;2024-03-22T12:36:33;18.13;;;11.40;;
36457;SDS011;22480;50.546;12.292;2024-03-22T12:38:58;18.67;;;12.40;;
36457;SDS011;22480;50.546;12.292;2024-03-22T12:41:24;18.88;;;12.95;;
36457;SDS011;22480;50.546;12.292;2024-03-22T12:43:51;16.98;;;13.23;;
36457;SDS011;22480;50.546;12.292;2024-03-22T12:46:16;15.85;;;12.48;;
36457;SDS011;22480;50.546;12.292;2024-03-22T12:48:42;19.27;;;12.15;;
36457;SDS011;22480;50.546;12.292;2024-03-22T12:51:08;18.75;;;11.88;;
36457;SDS011;22480;50.546;12.292;2024-03-22T12:53:34;16.48;;;12.30;;
36457;SDS011;22480;50.546;12.292;2024-03-22T12:56:00;15.45;;;11.23;;
36457;SDS011;22480;50.546;12.292;2024-03-22T12:58:25;16.70;;;11.75;;
36457;SDS011;22480;50.546;12.292;2024-03-22T13:00:51;17.33;;;12.05;;
36457;SDS011;22480;50.546;12.292;2024-03-22T13:03:17;20.80;;;11.60;;
36457;SDS011;22480;50.546;12.292;2024-03-22T13:05:42;18.27;;;13.60;;
36457;SDS011;22480;50.546;12.292;2024-03-22T13:08:08;18.08;;;12.32;;
36457;SDS011;22480;50.546;12.292;2024-03-22T13:10:34;14.23;;;11.25;;
36457;SDS011;22480;50.546;12.292;2024-03-22T13:12:59;14.73;;;11.30;;
36457;SDS011;22480;50.546;12.292;2024-03-22T13:15:26;16.02;;;11.60;;
36457;SDS011;22480;50.546;12.292;2024-03-22T13:17:51;14.13;;;11.10;;
36457;SDS011;22480;50.546;12.292;2024-03-22T13:20:18;16.52;;;11.75;;
36457;SDS011;22480;50.546;12.292;2024-03-22T13:22:44;15.25;;;11.57;;
36457;SDS011;22480;50.546;12.292;2024-03-22T13:25:10;17.65;;;11.70;;
36457;SDS011;22480;50.546;12.292;2024-03-22T13:27:37;15.95;;;12.95;;
36457;SDS011;22480;50.546;12.292;2024-03-22T13:30:06;18.25;;;12.25;;
36457;SDS011;22480;50.546;12.292;2024-03-22T13:32:36;19.15;;;12.88;;
36457;SDS011;22480;50.546;12.292;2024-03-22T13:35:02;18.02;;;12.98;;
36457;SDS011;22480;50.546;12.292;2024-03-22T13:37:29;16.50;;;11.93;;
36457;SDS011;22480;50.546;12.292;2024-03-22T13:39:55;19.27;;;12.82;;
36457;SDS011;22480;50.546;12.292;2024-03-22T13:42:21;15.65;;;11.60;;
36457;SDS011;22480;50.546;12.292;2024-03-22T13:44:47;15.70;;;11.45;;
36457;SDS011;22480;50.546;12.292;2024-03-22T13:47:12;20.08;;;11.88;;
36457;SDS011;22480;50.546;12.292;2024-03-22T13:49:38;16.40;;;11.20;;
36457;SDS011;22480;50.546;12.292;2024-03-22T13:52:06;15.07;;;11.82;;
36457;SDS011;22480;50.546;12.292;2024-03-22T13:54:32;16.85;;;11.07;;
36457;SDS011;22480;50.546;12.292;2024-03-22T13:56:58;16.02;;;10.95;;
36457;SDS011;22480;50.546;12.292;2024-03-22T13:59:25;13.18;;;10.45;;
36457;SDS011;22480;50.546;12.292;2024-03-22T14:01:51;19.02;;;10.73;;
36457;SDS011;22480;50.546;12.292;2024-03-22T14:04:17;19.23;;;11.00;;
36457;SDS011;22480;50.546;12.292;2024-03-22T14:06:44;16.42;;;10.35;;
36457;SDS011;22480;50.546;12.292;2024-03-22T14:09:10;15.52;;;10.63;;
36457;SDS011;22480;50.546;12.292;2024-03-22T14:11:38;15.50;;;11.05;;